David B — WDI7661 — position and weather

sailwx.info

Track history (hours):
 
Tides and Currents Weather Stations Pressure Air Temp Water Temp Dewpoint Dewpoint Depression Visibility Wind Speed Wind Dir Waves Ship Positions

David B

Owner: G & H TOWING COMPANY, Galveston, TX. More information available from US FCC via Universal Licensing System and Coast Guard Vessel Documentation Center.

Last reported at 2017-Sep-25 07:59 UTC. Time now 2017-Sep-25 08:23 UTC.
Position N 29°37' W 095°02'.

Length 24 m; draft 5.4 m.

Type: Tug. MMSI: 367730910.

Date/timePositionNaut miles runAvg speedWind from/ knotsBaromVisibWave heightAir tempDewpointWater temp
2017-Sep-25 07:59N 29°37' W 095°02'0 0.0
2017-Sep-25 07:26N 29°37' W 095°02'0 0.0
2017-Sep-25 06:56N 29°37' W 095°02'0 0.0
2017-Sep-25 06:29N 29°37' W 095°02'0 0.0
2017-Sep-25 05:56N 29°37' W 095°02'0 0.4
2017-Sep-25 05:30N 29°37' W 095°01'0 0.2
2017-Sep-25 05:01N 29°37' W 095°01'0 0.7
2017-Sep-25 04:30N 29°37' W 095°01'1 1.6
2017-Sep-25 03:59N 29°37' W 095°00'0 0.0
2017-Sep-25 03:29N 29°37' W 095°00'0 0.0
2017-Sep-25 02:59N 29°37' W 095°00'0 0.0
2017-Sep-25 02:29N 29°37' W 095°00'0 0.0
2017-Sep-25 01:59N 29°37' W 095°00'0 0.0
2017-Sep-25 01:29N 29°37' W 095°00'0 0.0
2017-Sep-25 00:59N 29°37' W 095°00'0 0.0
2017-Sep-25 00:29N 29°37' W 095°00'0 0.0
2017-Sep-24 23:59N 29°37' W 095°00'0 0.0
2017-Sep-24 23:29N 29°37' W 095°00'0 0.1
2017-Sep-24 23:01N 29°37' W 095°00'1 1.3
2017-Sep-24 22:27N 29°37' W 095°01'1 1.2
2017-Sep-24 22:01N 29°37' W 095°00'1 1.7
2017-Sep-24 21:30N 29°37' W 095°01'0 0.3
2017-Sep-24 20:58N 29°37' W 095°02'0 0.0
2017-Sep-24 20:28N 29°37' W 095°02'0 0.0
2017-Sep-24 19:58N 29°37' W 095°02'1 2.6
2017-Sep-24 19:30N 29°37' W 095°00'0 0.1
2017-Sep-24 19:00N 29°37' W 095°00'1 1.8
2017-Sep-24 18:20N 29°37' W 095°02'0 0.0
2017-Sep-24 18:00N 29°37' W 095°02'0 0.0
2017-Sep-24 17:29N 29°37' W 095°02'0 0.0
2017-Sep-24 17:00N 29°37' W 095°02'0 0.0
2017-Sep-24 16:29N 29°37' W 095°02'0 0.0
2017-Sep-24 15:59N 29°37' W 095°02'0 0.0
2017-Sep-24 15:30N 29°37' W 095°02'0 0.0
2017-Sep-24 15:00N 29°37' W 095°02'0 0.0
2017-Sep-24 14:29N 29°37' W 095°02'0 0.0
2017-Sep-24 13:59N 29°37' W 095°02'0 0.0
2017-Sep-24 13:31N 29°37' W 095°02'0 0.8
2017-Sep-24 13:00N 29°37' W 095°01'0 0.1
2017-Sep-24 12:30N 29°37' W 095°01'0 0.8
2017-Sep-24 11:59N 29°37' W 095°02'0 0.0
2017-Sep-24 11:29N 29°37' W 095°02'0 0.0
2017-Sep-24 10:59N 29°37' W 095°02'0 0.0
2017-Sep-24 10:29N 29°37' W 095°02'0 0.0
2017-Sep-24 09:59N 29°37' W 095°02'0 0.0
2017-Sep-24 09:29N 29°37' W 095°02'0 0.0
2017-Sep-24 08:59N 29°37' W 095°02'0 0.0
2017-Sep-24 08:29N 29°37' W 095°02'0 0.0
2017-Sep-24 07:59N 29°37' W 095°02'0 0.0
2017-Sep-24 07:29N 29°37' W 095°02'0 0.0
2017-Sep-24 06:59N 29°37' W 095°02'0 0.0
2017-Sep-24 06:30N 29°37' W 095°02'0 0.8
2017-Sep-24 06:00N 29°37' W 095°01'0 0.0
2017-Sep-24 05:30N 29°37' W 095°01'0 0.0
2017-Sep-24 05:01N 29°37' W 095°01'0 0.2
2017-Sep-24 04:31N 29°37' W 095°01'0 0.6
2017-Sep-24 04:00N 29°37' W 095°02'0 0.0
2017-Sep-24 03:31N 29°37' W 095°02'0 0.0
2017-Sep-24 03:00N 29°37' W 095°02'1 2.5
2017-Sep-24 02:30N 29°37' W 095°00'0 0.0
2017-Sep-24 02:00N 29°37' W 095°00'0 0.0
2017-Sep-24 01:30N 29°37' W 095°00'0 0.0
2017-Sep-24 01:00N 29°37' W 095°00'0 0.0
2017-Sep-24 00:30N 29°37' W 095°00'0 0.0
2017-Sep-24 00:00N 29°37' W 095°00'1 0.4
2017-Sep-23 22:39N 29°37' W 094°60'0 1.5
2017-Sep-23 22:30N 29°37' W 094°59'1 2.8
2017-Sep-23 21:59N 29°37' W 094°58'3 6.6
2017-Sep-23 21:30N 29°37' W 095°01'0 0.6
2017-Sep-23 21:00N 29°37' W 095°02'0 0.0
2017-Sep-23 20:30N 29°37' W 095°02'0 0.0
2017-Sep-23 20:00N 29°37' W 095°02'5 0.1
2017-Sep-22 01:59N 29°41' W 094°59'0 0.0
2017-Sep-22 01:29N 29°41' W 094°59'1 1.8
2017-Sep-22 00:59N 29°41' W 095°00'1 2.5
2017-Sep-22 00:30N 29°42' W 095°00'2 3.7
2017-Sep-22 00:01N 29°44' W 095°01'0 0.0
2017-Sep-21 23:31N 29°44' W 095°01'1 1.5
2017-Sep-21 22:33N 29°42' W 095°01'0 6.2
2017-Sep-21 22:30N 29°42' W 095°01'0 0.5
2017-Sep-21 22:00N 29°42' W 095°01'0 0.0
2017-Sep-21 21:30N 29°42' W 095°01'0 0.0
2017-Sep-21 21:00N 29°42' W 095°01'3 5.2
2017-Sep-21 20:29N 29°44' W 095°03'3 5.8
2017-Sep-21 20:00N 29°45' W 095°07'0 0.1
2017-Sep-21 18:00N 29°45' W 095°07'2 2.0
2017-Sep-21 17:07N 29°46' W 095°05'0 0.9
2017-Sep-21 17:00N 29°46' W 095°05'1 0.5
2017-Sep-21 14:57N 29°45' W 095°06'0 0.2
2017-Sep-21 14:30N 29°45' W 095°06'0 0.0
2017-Sep-21 13:51N 29°45' W 095°06'0 0.3
2017-Sep-21 12:42N 29°45' W 095°06'1 3.9
2017-Sep-21 12:28N 29°44' W 095°07'6 3.4
2017-Sep-21 10:50N 29°43' W 095°01'2 7.1
2017-Sep-21 10:30N 29°41' W 094°59'4 8.9
2017-Sep-21 10:00N 29°37' W 094°58'3 7.0
2017-Sep-21 09:30N 29°37' W 095°02'0 0.7
2017-Sep-21 09:00N 29°37' W 095°01'0 0.0
2017-Sep-21 08:30N 29°37' W 095°01'0 0.1
2017-Sep-21 08:00N 29°37' W 095°01'0 0.4
2017-Sep-21 07:30N 29°37' W 095°01'0 0.5
2017-Sep-21 07:00N 29°37' W 095°02'0 0.0
2017-Sep-21 06:30N 29°37' W 095°02'0 0.0
2017-Sep-21 06:00N 29°37' W 095°02'0 0.0
2017-Sep-21 05:30N 29°37' W 095°02'0 0.0
2017-Sep-21 05:00N 29°37' W 095°02'0 0.0
2017-Sep-21 04:30N 29°37' W 095°02'0 0.0
2017-Sep-21 04:00N 29°37' W 095°02'2 4.9
2017-Sep-21 03:31N 29°37' W 094°59'4 7.2
2017-Sep-21 03:00N 29°40' W 094°59'4 7.4
2017-Sep-21 02:30N 29°43' W 095°01'4 7.5
2017-Sep-21 02:00N 29°46' W 095°05'2 2.9
2017-Sep-21 01:14N 29°44' W 095°07'2 4.6
2017-Sep-21 00:47N 29°46' W 095°05'1 0.3
2017-Sep-20 20:58N 29°45' W 095°04'1 1.3
2017-Sep-20 20:30N 29°46' W 095°04'2 5.1
2017-Sep-20 20:00N 29°44' W 095°02'3 5.4
2017-Sep-20 19:23N 29°45' W 095°06'0 0.2
2017-Sep-20 18:37N 29°45' W 095°06'1 4.0
2017-Sep-20 18:21N 29°46' W 095°05'0 0.2
2017-Sep-20 17:59N 29°46' W 095°05'0 0.2
2017-Sep-20 16:38N 29°46' W 095°05'3 6.9
2017-Sep-20 16:13N 29°44' W 095°03'2 6.0
2017-Sep-20 15:52N 29°42' W 095°01'0 0.1
2017-Sep-20 15:21N 29°42' W 095°01'2 4.5
2017-Sep-20 14:58N 29°42' W 094°59'1 1.0
2017-Sep-20 14:01N 29°41' W 095°00'2 3.3
2017-Sep-20 13:30N 29°40' W 094°59'0 0.6
2017-Sep-20 13:00N 29°40' W 094°59'3 6.0
2017-Sep-20 12:28N 29°42' W 095°01'0 0.0
2017-Sep-20 11:58N 29°42' W 095°01'1 2.8
2017-Sep-20 11:27N 29°42' W 094°60'1 1.6
2017-Sep-20 10:59N 29°41' W 094°60'1 1.2
2017-Sep-20 10:31N 29°41' W 094°59'0 0.6
2017-Sep-20 10:00N 29°41' W 094°59'1 2.2
2017-Sep-20 09:30N 29°42' W 094°60'4 7.4
2017-Sep-20 09:00N 29°44' W 095°03'3 0.5
2017-Sep-20 02:56N 29°45' W 095°07'2 1.4
2017-Sep-20 01:24N 29°44' W 095°09'2 0.9
2017-Sep-19 23:26N 29°44' W 095°07'1 1.2
2017-Sep-19 23:00N 29°45' W 095°07'0 0.0
2017-Sep-19 22:16N 29°45' W 095°07'0 0.0
2017-Sep-19 21:59N 29°45' W 095°07'0 0.0
2017-Sep-19 21:24N 29°45' W 095°07'0 0.0
2017-Sep-19 19:36N 29°45' W 095°07'1 6.3
2017-Sep-19 19:27N 29°44' W 095°08'0 0.3
2017-Sep-19 19:00N 29°44' W 095°08'5 4.6
2017-Sep-19 17:51N 29°44' W 095°02'2 3.0
2017-Sep-19 17:20N 29°42' W 095°01'0 0.0
2017-Sep-19 16:59N 29°42' W 095°01'0 0.0
2017-Sep-19 16:26N 29°42' W 095°01'0 0.0
2017-Sep-19 15:56N 29°42' W 095°01'0 0.0
2017-Sep-19 15:29N 29°42' W 095°01'0 0.0
2017-Sep-19 14:59N 29°42' W 095°01'0 0.0
2017-Sep-19 14:30N 29°42' W 095°01'0 0.0
2017-Sep-19 14:00N 29°42' W 095°01'0 0.0
2017-Sep-19 13:30N 29°42' W 095°01'0 0.6
2017-Sep-19 13:00N 29°43' W 095°01'4 7.7
2017-Sep-19 12:30N 29°45' W 095°04'1 0.2
2017-Sep-19 08:53N 29°46' W 095°05'2 0.5
2017-Sep-19 04:43N 29°45' W 095°07'0 1.1
2017-Sep-19 04:20N 29°45' W 095°06'0 0.5
2017-Sep-19 03:37N 29°45' W 095°07'0 0.0
2017-Sep-19 02:16N 29°45' W 095°07'2 1.1
2017-Sep-19 00:41N 29°46' W 095°05'2 1.5
2017-Sep-18 23:27N 29°45' W 095°07'3 2.8
2017-Sep-18 22:23N 29°45' W 095°10'3 3.7
2017-Sep-18 21:36N 29°44' W 095°07'0 1.3
2017-Sep-18 21:29N 29°45' W 095°07'0 0.0
2017-Sep-18 19:40N 29°45' W 095°07'0 0.0
2017-Sep-18 19:12N 29°45' W 095°07'1 0.5
2017-Sep-18 17:34N 29°44' W 095°07'0 0.2
2017-Sep-18 16:53N 29°44' W 095°07'1 1.9
2017-Sep-18 16:30N 29°45' W 095°07'0 0.0
2017-Sep-18 15:56N 29°45' W 095°07'0 0.0
2017-Sep-18 15:08N 29°45' W 095°07'0 0.0
2017-Sep-18 14:44N 29°45' W 095°07'0 0.0
2017-Sep-18 14:26N 29°45' W 095°07'0 0.0
2017-Sep-18 13:58N 29°45' W 095°07'2 1.8
2017-Sep-18 12:49N 29°46' W 095°05'2 6.3
2017-Sep-18 12:29N 29°44' W 095°07'0 0.1
2017-Sep-18 10:27N 29°44' W 095°07'1 1.4
2017-Sep-18 09:53N 29°44' W 095°08'1 1.0
2017-Sep-18 08:45N 29°45' W 095°06'0 0.1
2017-Sep-18 07:16N 29°45' W 095°07'0 0.0
2017-Sep-18 05:41N 29°45' W 095°07'1 5.9
2017-Sep-18 05:28N 29°44' W 095°08'2 2.0
2017-Sep-18 04:27N 29°45' W 095°10'5 0.2
2017-Sep-17 02:04N 29°44' W 095°16'1 7.0
2017-Sep-17 01:57N 29°44' W 095°15'1 1.8
2017-Sep-17 01:10N 29°43' W 095°14'0 0.0
2017-Sep-17 00:59N 29°43' W 095°14'4 4.0
2017-Sep-16 23:54N 29°44' W 095°09'2 1.5
2017-Sep-16 22:39N 29°45' W 095°07'0 0.0
2017-Sep-16 22:25N 29°45' W 095°07'0 0.0
2017-Sep-16 21:18N 29°45' W 095°07'0 0.0
2017-Sep-16 21:00N 29°45' W 095°07'0 0.0
2017-Sep-16 19:24N 29°45' W 095°07'0 0.4
2017-Sep-16 18:34N 29°45' W 095°06'0 4.9
2017-Sep-16 18:30N 29°45' W 095°07'0 0.0
2017-Sep-16 17:53N 29°45' W 095°07'3 1.2
2017-Sep-16 15:16N 29°44' W 095°03'2 6.5
2017-Sep-16 14:53N 29°42' W 095°01'3 7.0
2017-Sep-16 14:30N 29°41' W 094°59'4 7.6
2017-Sep-16 14:00N 29°37' W 094°58'3 5.3
2017-Sep-16 13:30N 29°37' W 095°01'0 0.0
2017-Sep-16 12:58N 29°37' W 095°01'0 0.0
2017-Sep-16 12:28N 29°37' W 095°01'0 0.7
2017-Sep-16 12:00N 29°37' W 095°01'0 0.9
2017-Sep-16 11:30N 29°37' W 095°02'0 0.0
2017-Sep-16 10:58N 29°37' W 095°02'0 0.0
2017-Sep-16 10:28N 29°37' W 095°02'0 0.0
2017-Sep-16 09:58N 29°37' W 095°02'0 0.0
2017-Sep-16 09:28N 29°37' W 095°02'0 0.0
2017-Sep-16 08:58N 29°37' W 095°02'0 0.0
2017-Sep-16 08:28N 29°37' W 095°02'0 0.0
2017-Sep-16 07:55N 29°37' W 095°02'0 0.0
2017-Sep-16 07:28N 29°37' W 095°02'0 0.0
2017-Sep-16 06:58N 29°37' W 095°02'0 0.7
2017-Sep-16 06:31N 29°37' W 095°01'0 0.0
2017-Sep-16 06:00N 29°37' W 095°01'1 1.7
2017-Sep-16 05:31N 29°37' W 095°00'1 1.3
2017-Sep-16 04:58N 29°37' W 095°01'0 0.0
2017-Sep-16 04:28N 29°37' W 095°01'0 0.0
2017-Sep-16 03:55N 29°37' W 095°01'0 0.0
2017-Sep-16 03:28N 29°37' W 095°01'0 0.0
2017-Sep-16 02:58N 29°37' W 095°01'0 0.0
2017-Sep-16 02:28N 29°37' W 095°01'0 0.0
2017-Sep-16 01:58N 29°37' W 095°01'0 0.0
2017-Sep-16 01:28N 29°37' W 095°01'0 0.0
2017-Sep-16 00:58N 29°37' W 095°01'0 0.0
2017-Sep-16 00:28N 29°37' W 095°01'0 0.0
2017-Sep-15 23:58N 29°37' W 095°01'0 0.0
2017-Sep-15 23:28N 29°37' W 095°01'0 0.0
2017-Sep-15 22:58N 29°37' W 095°01'2 3.7
2017-Sep-15 22:30N 29°37' W 094°59'0 0.2
2017-Sep-15 22:00N 29°37' W 094°59'1 1.3
2017-Sep-15 21:30N 29°37' W 095°00'1 2.3
2017-Sep-15 20:58N 29°37' W 095°01'0 0.0
2017-Sep-15 20:27N 29°37' W 095°01'0 0.0
2017-Sep-15 20:01N 29°37' W 095°01'0 0.0
2017-Sep-15 19:30N 29°37' W 095°01'0 0.0
2017-Sep-15 18:58N 29°37' W 095°01'0 0.0
2017-Sep-15 18:30N 29°37' W 095°01'0 0.0
2017-Sep-15 18:00N 29°37' W 095°01'0 0.0
2017-Sep-15 17:28N 29°37' W 095°01'0 0.0
2017-Sep-15 17:01N 29°37' W 095°01'0 0.0
2017-Sep-15 16:28N 29°37' W 095°01'0 0.0
2017-Sep-15 16:01N 29°37' W 095°01'0 0.0
2017-Sep-15 15:30N 29°37' W 095°01'0 0.0
2017-Sep-15 14:51N 29°37' W 095°01'0 0.0
2017-Sep-15 14:30N 29°37' W 095°01'0 0.2
2017-Sep-15 14:00N 29°37' W 095°01'0 0.3
2017-Sep-15 13:30N 29°37' W 095°01'0 0.2
2017-Sep-15 13:00N 29°37' W 095°02'1 1.9
2017-Sep-15 12:30N 29°37' W 095°00'0 0.0
2017-Sep-15 12:00N 29°37' W 095°00'0 0.8
2017-Sep-15 11:30N 29°37' W 095°00'3 6.3
2017-Sep-15 11:00N 29°40' W 094°58'2 3.8
2017-Sep-15 10:30N 29°41' W 095°00'0 0.4
2017-Sep-15 10:01N 29°41' W 094°60'3 5.0
2017-Sep-15 09:30N 29°39' W 094°58'2 4.1
2017-Sep-15 09:00N 29°37' W 094°58'3 5.9
2017-Sep-15 08:30N 29°37' W 095°01'0 0.2
2017-Sep-15 08:00N 29°37' W 095°01'  
Track history (hours):
 
Tides and Currents Weather Stations Pressure Air Temp Water Temp Dewpoint Dewpoint Depression Visibility Wind Speed Wind Dir Waves Ship Positions

David B

Owner: G & H TOWING COMPANY, Galveston, TX. More information available from US FCC via Universal Licensing System and Coast Guard Vessel Documentation Center.

Last reported at 2017-Sep-25 07:59 UTC. Time now 2017-Sep-25 08:23 UTC.
Position N 29°37' W 095°02'.

Length 24 m; draft 5.4 m.

Type: Tug. MMSI: 367730910.

Date/timePositionNaut miles runAvg speedWind from/ knotsBaromVisibWave heightAir tempDewpointWater temp
2017-Sep-25 07:59N 29°37' W 095°02'0 0.0
2017-Sep-25 07:26N 29°37' W 095°02'0 0.0
2017-Sep-25 06:56N 29°37' W 095°02'0 0.0
2017-Sep-25 06:29N 29°37' W 095°02'0 0.0
2017-Sep-25 05:56N 29°37' W 095°02'0 0.4
2017-Sep-25 05:30N 29°37' W 095°01'0 0.2
2017-Sep-25 05:01N 29°37' W 095°01'0 0.7
2017-Sep-25 04:30N 29°37' W 095°01'1 1.6
2017-Sep-25 03:59N 29°37' W 095°00'0 0.0
2017-Sep-25 03:29N 29°37' W 095°00'0 0.0
2017-Sep-25 02:59N 29°37' W 095°00'0 0.0
2017-Sep-25 02:29N 29°37' W 095°00'0 0.0
2017-Sep-25 01:59N 29°37' W 095°00'0 0.0
2017-Sep-25 01:29N 29°37' W 095°00'0 0.0
2017-Sep-25 00:59N 29°37' W 095°00'0 0.0
2017-Sep-25 00:29N 29°37' W 095°00'0 0.0
2017-Sep-24 23:59N 29°37' W 095°00'0 0.0
2017-Sep-24 23:29N 29°37' W 095°00'0 0.1
2017-Sep-24 23:01N 29°37' W 095°00'1 1.3
2017-Sep-24 22:27N 29°37' W 095°01'1 1.2
2017-Sep-24 22:01N 29°37' W 095°00'1 1.7
2017-Sep-24 21:30N 29°37' W 095°01'0 0.3
2017-Sep-24 20:58N 29°37' W 095°02'0 0.0
2017-Sep-24 20:28N 29°37' W 095°02'0 0.0
2017-Sep-24 19:58N 29°37' W 095°02'1 2.6
2017-Sep-24 19:30N 29°37' W 095°00'0 0.1
2017-Sep-24 19:00N 29°37' W 095°00'1 1.8
2017-Sep-24 18:20N 29°37' W 095°02'0 0.0
2017-Sep-24 18:00N 29°37' W 095°02'0 0.0
2017-Sep-24 17:29N 29°37' W 095°02'0 0.0
2017-Sep-24 17:00N 29°37' W 095°02'0 0.0
2017-Sep-24 16:29N 29°37' W 095°02'0 0.0
2017-Sep-24 15:59N 29°37' W 095°02'0 0.0
2017-Sep-24 15:30N 29°37' W 095°02'0 0.0
2017-Sep-24 15:00N 29°37' W 095°02'0 0.0
2017-Sep-24 14:29N 29°37' W 095°02'0 0.0
2017-Sep-24 13:59N 29°37' W 095°02'0 0.0
2017-Sep-24 13:31N 29°37' W 095°02'0 0.8
2017-Sep-24 13:00N 29°37' W 095°01'0 0.1
2017-Sep-24 12:30N 29°37' W 095°01'0 0.8
2017-Sep-24 11:59N 29°37' W 095°02'0 0.0
2017-Sep-24 11:29N 29°37' W 095°02'0 0.0
2017-Sep-24 10:59N 29°37' W 095°02'0 0.0
2017-Sep-24 10:29N 29°37' W 095°02'0 0.0
2017-Sep-24 09:59N 29°37' W 095°02'0 0.0
2017-Sep-24 09:29N 29°37' W 095°02'0 0.0
2017-Sep-24 08:59N 29°37' W 095°02'0 0.0
2017-Sep-24 08:29N 29°37' W 095°02'0 0.0
2017-Sep-24 07:59N 29°37' W 095°02'0 0.0
2017-Sep-24 07:29N 29°37' W 095°02'0 0.0
2017-Sep-24 06:59N 29°37' W 095°02'0 0.0
2017-Sep-24 06:30N 29°37' W 095°02'0 0.8
2017-Sep-24 06:00N 29°37' W 095°01'0 0.0
2017-Sep-24 05:30N 29°37' W 095°01'0 0.0
2017-Sep-24 05:01N 29°37' W 095°01'0 0.2
2017-Sep-24 04:31N 29°37' W 095°01'0 0.6
2017-Sep-24 04:00N 29°37' W 095°02'0 0.0
2017-Sep-24 03:31N 29°37' W 095°02'0 0.0
2017-Sep-24 03:00N 29°37' W 095°02'1 2.5
2017-Sep-24 02:30N 29°37' W 095°00'0 0.0
2017-Sep-24 02:00N 29°37' W 095°00'0 0.0
2017-Sep-24 01:30N 29°37' W 095°00'0 0.0
2017-Sep-24 01:00N 29°37' W 095°00'0 0.0
2017-Sep-24 00:30N 29°37' W 095°00'0 0.0
2017-Sep-24 00:00N 29°37' W 095°00'1 0.4
2017-Sep-23 22:39N 29°37' W 094°60'0 1.5
2017-Sep-23 22:30N 29°37' W 094°59'1 2.8
2017-Sep-23 21:59N 29°37' W 094°58'3 6.6
2017-Sep-23 21:30N 29°37' W 095°01'0 0.6
2017-Sep-23 21:00N 29°37' W 095°02'0 0.0
2017-Sep-23 20:30N 29°37' W 095°02'0 0.0
2017-Sep-23 20:00N 29°37' W 095°02'5 0.1
2017-Sep-22 01:59N 29°41' W 094°59'0 0.0
2017-Sep-22 01:29N 29°41' W 094°59'1 1.8
2017-Sep-22 00:59N 29°41' W 095°00'1 2.5
2017-Sep-22 00:30N 29°42' W 095°00'2 3.7
2017-Sep-22 00:01N 29°44' W 095°01'0 0.0
2017-Sep-21 23:31N 29°44' W 095°01'1 1.5
2017-Sep-21 22:33N 29°42' W 095°01'0 6.2
2017-Sep-21 22:30N 29°42' W 095°01'0 0.5
2017-Sep-21 22:00N 29°42' W 095°01'0 0.0
2017-Sep-21 21:30N 29°42' W 095°01'0 0.0
2017-Sep-21 21:00N 29°42' W 095°01'3 5.2
2017-Sep-21 20:29N 29°44' W 095°03'3 5.8
2017-Sep-21 20:00N 29°45' W 095°07'0 0.1
2017-Sep-21 18:00N 29°45' W 095°07'2 2.0
2017-Sep-21 17:07N 29°46' W 095°05'0 0.9
2017-Sep-21 17:00N 29°46' W 095°05'1 0.5
2017-Sep-21 14:57N 29°45' W 095°06'0 0.2
2017-Sep-21 14:30N 29°45' W 095°06'0 0.0
2017-Sep-21 13:51N 29°45' W 095°06'0 0.3
2017-Sep-21 12:42N 29°45' W 095°06'1 3.9
2017-Sep-21 12:28N 29°44' W 095°07'6 3.4
2017-Sep-21 10:50N 29°43' W 095°01'2 7.1
2017-Sep-21 10:30N 29°41' W 094°59'4 8.9
2017-Sep-21 10:00N 29°37' W 094°58'3 7.0
2017-Sep-21 09:30N 29°37' W 095°02'0 0.7
2017-Sep-21 09:00N 29°37' W 095°01'0 0.0
2017-Sep-21 08:30N 29°37' W 095°01'0 0.1
2017-Sep-21 08:00N 29°37' W 095°01'0 0.4
2017-Sep-21 07:30N 29°37' W 095°01'0 0.5
2017-Sep-21 07:00N 29°37' W 095°02'0 0.0
2017-Sep-21 06:30N 29°37' W 095°02'0 0.0
2017-Sep-21 06:00N 29°37' W 095°02'0 0.0
2017-Sep-21 05:30N 29°37' W 095°02'0 0.0
2017-Sep-21 05:00N 29°37' W 095°02'0 0.0
2017-Sep-21 04:30N 29°37' W 095°02'0 0.0
2017-Sep-21 04:00N 29°37' W 095°02'2 4.9
2017-Sep-21 03:31N 29°37' W 094°59'4 7.2
2017-Sep-21 03:00N 29°40' W 094°59'4 7.4
2017-Sep-21 02:30N 29°43' W 095°01'4 7.5
2017-Sep-21 02:00N 29°46' W 095°05'2 2.9
2017-Sep-21 01:14N 29°44' W 095°07'2 4.6
2017-Sep-21 00:47N 29°46' W 095°05'1 0.3
2017-Sep-20 20:58N 29°45' W 095°04'1 1.3
2017-Sep-20 20:30N 29°46' W 095°04'2 5.1
2017-Sep-20 20:00N 29°44' W 095°02'3 5.4
2017-Sep-20 19:23N 29°45' W 095°06'0 0.2
2017-Sep-20 18:37N 29°45' W 095°06'1 4.0
2017-Sep-20 18:21N 29°46' W 095°05'0 0.2
2017-Sep-20 17:59N 29°46' W 095°05'0 0.2
2017-Sep-20 16:38N 29°46' W 095°05'3 6.9
2017-Sep-20 16:13N 29°44' W 095°03'2 6.0
2017-Sep-20 15:52N 29°42' W 095°01'0 0.1
2017-Sep-20 15:21N 29°42' W 095°01'2 4.5
2017-Sep-20 14:58N 29°42' W 094°59'1 1.0
2017-Sep-20 14:01N 29°41' W 095°00'2 3.3
2017-Sep-20 13:30N 29°40' W 094°59'0 0.6
2017-Sep-20 13:00N 29°40' W 094°59'3 6.0
2017-Sep-20 12:28N 29°42' W 095°01'0 0.0
2017-Sep-20 11:58N 29°42' W 095°01'1 2.8
2017-Sep-20 11:27N 29°42' W 094°60'1 1.6
2017-Sep-20 10:59N 29°41' W 094°60'1 1.2
2017-Sep-20 10:31N 29°41' W 094°59'0 0.6
2017-Sep-20 10:00N 29°41' W 094°59'1 2.2
2017-Sep-20 09:30N 29°42' W 094°60'4 7.4
2017-Sep-20 09:00N 29°44' W 095°03'3 0.5
2017-Sep-20 02:56N 29°45' W 095°07'2 1.4
2017-Sep-20 01:24N 29°44' W 095°09'2 0.9
2017-Sep-19 23:26N 29°44' W 095°07'1 1.2
2017-Sep-19 23:00N 29°45' W 095°07'0 0.0
2017-Sep-19 22:16N 29°45' W 095°07'0 0.0
2017-Sep-19 21:59N 29°45' W 095°07'0 0.0
2017-Sep-19 21:24N 29°45' W 095°07'0 0.0
2017-Sep-19 19:36N 29°45' W 095°07'1 6.3
2017-Sep-19 19:27N 29°44' W 095°08'0 0.3
2017-Sep-19 19:00N 29°44' W 095°08'5 4.6
2017-Sep-19 17:51N 29°44' W 095°02'2 3.0
2017-Sep-19 17:20N 29°42' W 095°01'0 0.0
2017-Sep-19 16:59N 29°42' W 095°01'0 0.0
2017-Sep-19 16:26N 29°42' W 095°01'0 0.0
2017-Sep-19 15:56N 29°42' W 095°01'0 0.0
2017-Sep-19 15:29N 29°42' W 095°01'0 0.0
2017-Sep-19 14:59N 29°42' W 095°01'0 0.0
2017-Sep-19 14:30N 29°42' W 095°01'0 0.0
2017-Sep-19 14:00N 29°42' W 095°01'0 0.0
2017-Sep-19 13:30N 29°42' W 095°01'0 0.6
2017-Sep-19 13:00N 29°43' W 095°01'4 7.7
2017-Sep-19 12:30N 29°45' W 095°04'1 0.2
2017-Sep-19 08:53N 29°46' W 095°05'2 0.5
2017-Sep-19 04:43N 29°45' W 095°07'0 1.1
2017-Sep-19 04:20N 29°45' W 095°06'0 0.5
2017-Sep-19 03:37N 29°45' W 095°07'0 0.0
2017-Sep-19 02:16N 29°45' W 095°07'2 1.1
2017-Sep-19 00:41N 29°46' W 095°05'2 1.5
2017-Sep-18 23:27N 29°45' W 095°07'3 2.8
2017-Sep-18 22:23N 29°45' W 095°10'3 3.7
2017-Sep-18 21:36N 29°44' W 095°07'0 1.3
2017-Sep-18 21:29N 29°45' W 095°07'0 0.0
2017-Sep-18 19:40N 29°45' W 095°07'0 0.0
2017-Sep-18 19:12N 29°45' W 095°07'1 0.5
2017-Sep-18 17:34N 29°44' W 095°07'0 0.2
2017-Sep-18 16:53N 29°44' W 095°07'1 1.9
2017-Sep-18 16:30N 29°45' W 095°07'0 0.0
2017-Sep-18 15:56N 29°45' W 095°07'0 0.0
2017-Sep-18 15:08N 29°45' W 095°07'0 0.0
2017-Sep-18 14:44N 29°45' W 095°07'0 0.0
2017-Sep-18 14:26N 29°45' W 095°07'0 0.0
2017-Sep-18 13:58N 29°45' W 095°07'2 1.8
2017-Sep-18 12:49N 29°46' W 095°05'2 6.3
2017-Sep-18 12:29N 29°44' W 095°07'0 0.1
2017-Sep-18 10:27N 29°44' W 095°07'1 1.4
2017-Sep-18 09:53N 29°44' W 095°08'1 1.0
2017-Sep-18 08:45N 29°45' W 095°06'0 0.1
2017-Sep-18 07:16N 29°45' W 095°07'0 0.0
2017-Sep-18 05:41N 29°45' W 095°07'1 5.9
2017-Sep-18 05:28N 29°44' W 095°08'2 2.0
2017-Sep-18 04:27N 29°45' W 095°10'5 0.2
2017-Sep-17 02:04N 29°44' W 095°16'1 7.0
2017-Sep-17 01:57N 29°44' W 095°15'1 1.8
2017-Sep-17 01:10N 29°43' W 095°14'0 0.0
2017-Sep-17 00:59N 29°43' W 095°14'4 4.0
2017-Sep-16 23:54N 29°44' W 095°09'2 1.5
2017-Sep-16 22:39N 29°45' W 095°07'0 0.0
2017-Sep-16 22:25N 29°45' W 095°07'0 0.0
2017-Sep-16 21:18N 29°45' W 095°07'0 0.0
2017-Sep-16 21:00N 29°45' W 095°07'0 0.0
2017-Sep-16 19:24N 29°45' W 095°07'0 0.4
2017-Sep-16 18:34N 29°45' W 095°06'0 4.9
2017-Sep-16 18:30N 29°45' W 095°07'0 0.0
2017-Sep-16 17:53N 29°45' W 095°07'3 1.2
2017-Sep-16 15:16N 29°44' W 095°03'2 6.5
2017-Sep-16 14:53N 29°42' W 095°01'3 7.0
2017-Sep-16 14:30N 29°41' W 094°59'4 7.6
2017-Sep-16 14:00N 29°37' W 094°58'3 5.3
2017-Sep-16 13:30N 29°37' W 095°01'0 0.0
2017-Sep-16 12:58N 29°37' W 095°01'0 0.0
2017-Sep-16 12:28N 29°37' W 095°01'0 0.7
2017-Sep-16 12:00N 29°37' W 095°01'0 0.9
2017-Sep-16 11:30N 29°37' W 095°02'0 0.0
2017-Sep-16 10:58N 29°37' W 095°02'0 0.0
2017-Sep-16 10:28N 29°37' W 095°02'0 0.0
2017-Sep-16 09:58N 29°37' W 095°02'0 0.0
2017-Sep-16 09:28N 29°37' W 095°02'0 0.0
2017-Sep-16 08:58N 29°37' W 095°02'0 0.0
2017-Sep-16 08:28N 29°37' W 095°02'0 0.0
2017-Sep-16 07:55N 29°37' W 095°02'0 0.0
2017-Sep-16 07:28N 29°37' W 095°02'0 0.0
2017-Sep-16 06:58N 29°37' W 095°02'0 0.7
2017-Sep-16 06:31N 29°37' W 095°01'0 0.0
2017-Sep-16 06:00N 29°37' W 095°01'1 1.7
2017-Sep-16 05:31N 29°37' W 095°00'1 1.3
2017-Sep-16 04:58N 29°37' W 095°01'0 0.0
2017-Sep-16 04:28N 29°37' W 095°01'0 0.0
2017-Sep-16 03:55N 29°37' W 095°01'0 0.0
2017-Sep-16 03:28N 29°37' W 095°01'0 0.0
2017-Sep-16 02:58N 29°37' W 095°01'0 0.0
2017-Sep-16 02:28N 29°37' W 095°01'0 0.0
2017-Sep-16 01:58N 29°37' W 095°01'0 0.0
2017-Sep-16 01:28N 29°37' W 095°01'0 0.0
2017-Sep-16 00:58N 29°37' W 095°01'0 0.0
2017-Sep-16 00:28N 29°37' W 095°01'0 0.0
2017-Sep-15 23:58N 29°37' W 095°01'0 0.0
2017-Sep-15 23:28N 29°37' W 095°01'0 0.0
2017-Sep-15 22:58N 29°37' W 095°01'2 3.7
2017-Sep-15 22:30N 29°37' W 094°59'0 0.2
2017-Sep-15 22:00N 29°37' W 094°59'1 1.3
2017-Sep-15 21:30N 29°37' W 095°00'1 2.3
2017-Sep-15 20:58N 29°37' W 095°01'0 0.0
2017-Sep-15 20:27N 29°37' W 095°01'0 0.0
2017-Sep-15 20:01N 29°37' W 095°01'0 0.0
2017-Sep-15 19:30N 29°37' W 095°01'0 0.0
2017-Sep-15 18:58N 29°37' W 095°01'0 0.0
2017-Sep-15 18:30N 29°37' W 095°01'0 0.0
2017-Sep-15 18:00N 29°37' W 095°01'0 0.0
2017-Sep-15 17:28N 29°37' W 095°01'0 0.0
2017-Sep-15 17:01N 29°37' W 095°01'0 0.0
2017-Sep-15 16:28N 29°37' W 095°01'0 0.0
2017-Sep-15 16:01N 29°37' W 095°01'0 0.0
2017-Sep-15 15:30N 29°37' W 095°01'0 0.0
2017-Sep-15 14:51N 29°37' W 095°01'0 0.0
2017-Sep-15 14:30N 29°37' W 095°01'0 0.2
2017-Sep-15 14:00N 29°37' W 095°01'0 0.3
2017-Sep-15 13:30N 29°37' W 095°01'0 0.2
2017-Sep-15 13:00N 29°37' W 095°02'1 1.9
2017-Sep-15 12:30N 29°37' W 095°00'0 0.0
2017-Sep-15 12:00N 29°37' W 095°00'0 0.8
2017-Sep-15 11:30N 29°37' W 095°00'3 6.3
2017-Sep-15 11:00N 29°40' W 094°58'2 3.8
2017-Sep-15 10:30N 29°41' W 095°00'0 0.4
2017-Sep-15 10:01N 29°41' W 094°60'3 5.0
2017-Sep-15 09:30N 29°39' W 094°58'2 4.1
2017-Sep-15 09:00N 29°37' W 094°58'3 5.9
2017-Sep-15 08:30N 29°37' W 095°01'0 0.2
2017-Sep-15 08:00N 29°37' W 095°01'  

Dump ship's entire track history